모두
Port Keats Airfield Airport (Port Keats, Northern Territory) PKT 기상
|
Port Keats, Northern Territory (YPKT)
맑은 하늘
가벼운 바람 |
|
30 °C |
PKT 터미널 지역 예측
| Date | Time (ACST) | Flight Rules | Wind Dir. | Speed | Type | Height AGL (ft) | Visibility | Remarks | ||||||
|---|---|---|---|---|---|---|---|---|---|---|---|---|---|---|
| 04-5월 | 19:30 | VFR | 270° | 8 kt | Clouds and Visibility are OK | >= 6 miles | ||||||||
| 04-5월 | 18:30 | VFR | 270° | 8 kt | Clouds and Visibility are OK | >= 6 miles | ||||||||
최근 PKT METAR 이력
| Date | Time (ACST) | Flight Rules | Wind Dir. | Speed | Type | Height AGL (ft) | Visibility | Temp (°C) | Temp (°F) | Dew Point (°C) | Dew Point (°F) | Rel. Humid. | Pressure | Density Altitude | Remarks |
|---|---|---|---|---|---|---|---|---|---|---|---|---|---|---|---|
| 04-5월 | 18:30 | n/a | 260° | 4 kt | Missing | 30° | 86° | 24° | 75° | 70% | 1010 mb | 1,986 ft | |||
| 04-5월 | 17:30 | n/a | 270° | 5 kt | Missing | 32° | 89° | 24° | 75° | 63% | 1009 mb | 2,255 ft | |||
| 04-5월 | 16:30 | n/a | 290° | 6 kt | Missing | 33° | 91° | 23° | 73° | 56% | 1009 mb | 2,375 ft | |||
| 04-5월 | 15:30 | n/a | 160° | 7 kt | Missing | 35° | 95° | 22° | 71° | 47% | 1009 mb | 2,615 ft | |||
| 04-5월 | 14:30 | n/a | 160° | 6 kt | Missing | 35° | 95° | 22° | 71° | 47% | 1009 mb | 2,615 ft | |||
| 04-5월 | 13:30 | n/a | 170° | 6 kt | Missing | 34° | 93° | 22° | 71° | 50% | 1010 mb | 2,466 ft | |||
| 04-5월 | 12:30 | n/a | 120° | 6 kt | Missing | 33° | 91° | 23° | 73° | 56% | 1011 mb | 2,316 ft | |||
| 04-5월 | 11:30 | n/a | 130° | 6 kt | Missing | 32° | 89° | 23° | 73° | 59% | 1012 mb | 2,167 ft | |||
| 04-5월 | 10:30 | n/a | 140° | 7 kt | Missing | 30° | 86° | 25° | 77° | 75% | 1013 mb | 1,897 ft | |||
| 04-5월 | 09:30 | n/a | 160° | 7 kt | Missing | 29° | 84° | 26° | 78° | 84% | 1012 mb | 1,807 ft | |||
| 04-5월 | 08:30 | n/a | Calm | Missing | 27° | 80° | 25° | 77° | 89% | 1012 mb | 1,567 ft | ||||
| 04-5월 | 07:30 | n/a | 190° | 2 kt | Missing | 25° | 77° | 24° | 75° | 94% | 1011 mb | 1,356 ft | |||
| 04-5월 | 06:30 | n/a | 190° | 1 kt | Missing | 24° | 75° | 24° | 75° | 100% | 1011 mb | 1,236 ft | |||
| 04-5월 | 05:30 | n/a | 190° | 1 kt | Missing | 24° | 75° | 23° | 73° | 94% | 1010 mb | 1,266 ft | |||
| 04-5월 | 04:30 | n/a | Calm | Missing | 25° | 77° | 24° | 75° | 94% | 1010 mb | 1,386 ft | ||||
| 04-5월 | 03:30 | n/a | Calm | Missing | 23° | 73° | 23° | 73° | 100% | 1010 mb | 1,146 ft | ||||
| 04-5월 | 02:30 | n/a | Calm | Missing | 24° | 75° | 24° | 75° | 100% | 1011 mb | 1,236 ft | ||||
| 04-5월 | 01:30 | n/a | Calm | Missing | 25° | 77° | 24° | 75° | 94% | 1011 mb | 1,356 ft | ||||
| 04-5월 | 00:30 | n/a | Calm | Missing | 25° | 77° | 24° | 75° | 94% | 1012 mb | 1,327 ft | ||||
| 03-5월 | 23:30 | n/a | 200° | 1 kt | Missing | 25° | 77° | 24° | 75° | 94% | 1012 mb | 1,327 ft | |||
| 03-5월 | 22:30 | n/a | Calm | Missing | 26° | 78° | 25° | 77° | 94% | 1012 mb | 1,447 ft | ||||
| 03-5월 | 21:30 | n/a | Calm | Missing | 26° | 78° | 25° | 77° | 94% | 1012 mb | 1,447 ft | ||||
| 03-5월 | 20:30 | n/a | Calm | Missing | 26° | 78° | 25° | 77° | 94% | 1011 mb | 1,476 ft | ||||
| 03-5월 | 19:30 | n/a | 340° | 1 kt | Missing | 28° | 82° | 25° | 77° | 84% | 1010 mb | 1,746 ft |
로그인
| 귀하의 브라우저는 지원되지 않습니다.. 브라우저를 업그레이드하세요 |
